createdAt,value
2022-12-07T00:00:47.312Z,59.16
2022-12-07T00:01:47.508Z,59.25
2022-12-07T00:02:47.620Z,59.08
2022-12-07T00:03:47.751Z,59.33
2022-12-07T00:04:47.805Z,59.46
2022-12-07T00:05:47.860Z,59.25
2022-12-07T00:06:47.992Z,59.41
2022-12-07T00:07:48.223Z,59.84
2022-12-07T00:08:48.238Z,59.88
2022-12-07T00:09:48.318Z,60.01
2022-12-07T00:11:24.145Z,60.10
2022-12-07T00:11:48.557Z,60.36
2022-12-07T00:12:48.657Z,60.49
2022-12-07T00:13:48.776Z,60.45
2022-12-07T00:14:48.896Z,60.71
2022-12-07T00:15:48.996Z,60.49
2022-12-07T00:16:49.159Z,60.67
2022-12-07T00:17:49.267Z,60.98
2022-12-07T00:18:49.424Z,60.67
2022-12-07T00:19:49.464Z,61.11
2022-12-07T00:20:49.646Z,60.93
2022-12-07T00:21:49.714Z,60.80
2022-12-07T00:22:49.824Z,60.76
2022-12-07T00:23:49.951Z,60.84
2022-12-07T00:24:50.049Z,60.80
2022-12-07T00:25:50.161Z,60.84
2022-12-07T00:26:50.283Z,60.84
2022-12-07T00:27:50.371Z,61.20
2022-12-07T00:28:50.495Z,60.98
2022-12-07T00:29:50.581Z,61.11
2022-12-07T00:30:50.701Z,61.20
2022-12-07T00:31:50.924Z,61.11
2022-12-07T00:32:50.941Z,61.25
2022-12-07T00:33:51.124Z,61.29
2022-12-07T00:34:51.168Z,61.16
2022-12-07T00:35:51.271Z,61.11
2022-12-07T00:36:51.433Z,61.43
2022-12-07T00:37:51.510Z,61.38
2022-12-07T00:38:51.668Z,61.38
2022-12-07T00:39:51.687Z,61.47
2022-12-07T00:40:51.809Z,61.47
2022-12-07T00:41:51.937Z,61.52
2022-12-07T00:42:52.053Z,61.52
2022-12-07T00:43:52.193Z,61.70
2022-12-07T00:44:52.237Z,61.47
2022-12-07T00:45:52.450Z,61.70
2022-12-07T00:46:52.548Z,61.61
2022-12-07T00:47:52.629Z,61.79
2022-12-07T00:48:52.715Z,61.52
2022-12-07T00:49:52.861Z,61.79
2022-12-07T00:50:52.929Z,62.02
2022-12-07T00:51:53.213Z,62.07
2022-12-07T00:52:53.178Z,62.07
2022-12-07T00:53:53.325Z,62.25
2022-12-07T00:54:53.389Z,62.02
2022-12-07T00:55:53.535Z,62.07
2022-12-07T00:56:53.614Z,62.16
2022-12-07T00:57:53.815Z,62.11
2022-12-07T00:58:53.840Z,62.07
2022-12-07T00:59:53.973Z,62.21
2022-12-07T01:00:54.116Z,62.53
2022-12-07T01:01:54.212Z,62.58
2022-12-07T01:02:54.345Z,62.62
2022-12-07T01:03:54.400Z,62.72
2022-12-07T01:04:54.581Z,62.49
2022-12-07T01:05:54.629Z,62.81
2022-12-07T01:06:54.743Z,62.77
2022-12-07T01:07:54.912Z,62.62
2022-12-07T01:08:55.009Z,63.00
2022-12-07T01:09:55.106Z,62.86
2022-12-07T01:10:55.205Z,63.05
2022-12-07T01:11:55.409Z,63.10
2022-12-07T01:12:55.459Z,63.24
2022-12-07T01:13:55.628Z,63.10
2022-12-07T01:14:55.744Z,63.19
2022-12-07T01:15:55.791Z,62.91
2022-12-07T01:16:55.933Z,63.29
2022-12-07T01:17:56.010Z,63.58
2022-12-07T01:18:56.188Z,63.15
2022-12-07T01:19:56.282Z,63.05
2022-12-07T01:20:56.386Z,63.29
2022-12-07T01:21:56.517Z,63.29
2022-12-07T01:22:56.616Z,63.19
2022-12-07T01:23:56.780Z,63.19
2022-12-07T01:24:56.895Z,63.15
2022-12-07T01:25:56.954Z,63.44
2022-12-07T01:26:57.126Z,63.10
2022-12-07T01:27:57.194Z,63.24
2022-12-07T01:28:57.349Z,63.24
2022-12-07T01:29:57.363Z,63.29
2022-12-07T01:30:57.579Z,63.19
2022-12-07T01:31:57.748Z,63.15
2022-12-07T01:32:57.760Z,63.24
2022-12-07T01:33:57.909Z,63.19
2022-12-07T01:34:57.919Z,63.15
2022-12-07T01:35:58.025Z,63.39
2022-12-07T01:36:58.179Z,63.10
2022-12-07T01:37:58.281Z,63.00
2022-12-07T01:38:58.443Z,63.00
2022-12-07T01:39:58.588Z,62.77
2022-12-07T01:40:58.632Z,62.53
2022-12-07T01:41:58.762Z,62.34
2022-12-07T01:42:58.841Z,62.53
2022-12-07T01:43:59.022Z,62.58
2022-12-07T01:44:59.058Z,62.49
2022-12-07T01:45:59.241Z,62.49
2022-12-07T01:46:59.302Z,62.53
2022-12-07T01:47:59.420Z,62.62
2022-12-07T01:48:59.532Z,62.44
2022-12-07T01:49:59.948Z,62.25
2022-12-07T01:50:59.815Z,62.25
2022-12-07T01:51:59.978Z,62.25
2022-12-07T01:53:00.165Z,62.44
2022-12-07T01:54:00.085Z,62.44
2022-12-07T01:55:00.269Z,62.34
2022-12-07T01:56:00.329Z,62.34
2022-12-07T01:57:00.433Z,62.30
2022-12-07T01:58:00.587Z,62.44
2022-12-07T01:59:00.687Z,62.30
2022-12-07T02:00:01.149Z,62.16
2022-12-07T02:01:00.923Z,61.97
2022-12-07T02:02:01.056Z,62.21
2022-12-07T02:03:01.248Z,62.16
2022-12-07T02:04:01.234Z,62.11
2022-12-07T02:05:01.327Z,62.07
2022-12-07T02:06:01.444Z,61.93
2022-12-07T02:07:01.599Z,61.61
2022-12-07T02:08:01.758Z,62.25
2022-12-07T02:09:01.753Z,61.93
2022-12-07T02:10:02.261Z,61.93
2022-12-07T02:11:02.156Z,61.97
2022-12-07T02:12:02.126Z,61.61
2022-12-07T02:13:02.241Z,62.02
2022-12-07T02:14:02.424Z,62.25
2022-12-07T02:15:02.474Z,62.11
2022-12-07T02:16:02.687Z,62.16
2022-12-07T02:17:02.761Z,62.16
2022-12-07T02:18:02.904Z,62.07
2022-12-07T02:19:03.007Z,62.11
2022-12-07T02:20:03.278Z,62.16
2022-12-07T02:21:03.198Z,62.02
2022-12-07T02:22:04.259Z,62.39
2022-12-07T02:23:03.437Z,62.21
2022-12-07T02:24:03.530Z,62.21
2022-12-07T02:25:03.670Z,62.30
2022-12-07T02:26:03.791Z,62.25
2022-12-07T02:27:03.921Z,62.44
2022-12-07T02:28:04.040Z,62.44
2022-12-07T02:29:04.150Z,62.25
2022-12-07T02:30:04.778Z,62.44
2022-12-07T02:31:04.465Z,62.34
2022-12-07T02:32:04.557Z,62.39
2022-12-07T02:33:04.625Z,62.34
2022-12-07T02:34:04.684Z,62.21
2022-12-07T02:35:04.795Z,62.30
2022-12-07T02:36:04.901Z,62.21
2022-12-07T02:37:05.011Z,62.39
2022-12-07T02:38:05.275Z,62.34
2022-12-07T02:39:05.232Z,62.44
2022-12-07T02:40:05.526Z,62.34
2022-12-07T02:41:05.469Z,62.39
2022-12-07T02:42:05.579Z,62.44
2022-12-07T02:43:05.710Z,62.49
2022-12-07T02:44:05.821Z,62.67
2022-12-07T02:45:05.922Z,62.44
2022-12-07T02:46:06.102Z,62.49
2022-12-07T02:47:06.154Z,62.53
2022-12-07T02:48:06.275Z,62.30
2022-12-07T02:49:06.373Z,62.44
2022-12-07T02:50:06.515Z,62.44
2022-12-07T02:51:06.591Z,62.39
2022-12-07T02:52:06.823Z,62.53
2022-12-07T02:53:06.895Z,62.49
2022-12-07T02:54:06.930Z,62.67
2022-12-07T02:55:07.094Z,62.67
2022-12-07T02:56:07.185Z,62.44
2022-12-07T02:57:07.292Z,62.49
2022-12-07T02:58:07.400Z,62.44
2022-12-07T02:59:07.525Z,62.44
2022-12-07T03:00:07.652Z,62.49
2022-12-07T03:01:07.833Z,62.39
2022-12-07T03:02:07.943Z,62.53
2022-12-07T03:03:08.045Z,62.62
2022-12-07T03:04:08.094Z,62.58
2022-12-07T03:05:08.208Z,62.86
2022-12-07T03:06:08.306Z,62.53
2022-12-07T03:07:08.409Z,62.62
2022-12-07T03:08:08.689Z,62.67
2022-12-07T03:09:08.634Z,62.62
2022-12-07T03:10:08.966Z,62.62
2022-12-07T03:11:08.893Z,62.62
2022-12-07T03:12:09.065Z,62.62
2022-12-07T03:13:09.148Z,62.53
2022-12-07T03:14:09.255Z,62.67
2022-12-07T03:15:09.355Z,62.91
2022-12-07T03:16:09.517Z,62.58
2022-12-07T03:17:09.535Z,62.67
2022-12-07T03:18:09.730Z,62.67
2022-12-07T03:19:09.759Z,62.62
2022-12-07T03:20:09.871Z,62.67
2022-12-07T03:21:10.041Z,62.58
2022-12-07T03:22:10.109Z,62.34
2022-12-07T03:23:10.331Z,62.62
2022-12-07T03:24:10.360Z,62.39
2022-12-07T03:25:10.452Z,62.30
2022-12-07T03:26:10.560Z,62.62
2022-12-07T03:27:10.726Z,62.67
2022-12-07T03:28:10.759Z,62.58
2022-12-07T03:29:10.937Z,62.67
2022-12-07T03:30:10.987Z,62.62
2022-12-07T03:31:11.275Z,62.67
2022-12-07T03:32:11.307Z,62.81
2022-12-07T03:33:11.467Z,62.30
2022-12-07T03:34:11.487Z,62.25
2022-12-07T03:35:11.599Z,62.34
2022-12-07T03:36:11.705Z,62.39
2022-12-07T03:37:11.865Z,62.30
2022-12-07T03:38:11.931Z,62.16
2022-12-07T03:39:11.997Z,62.34
2022-12-07T03:40:12.140Z,62.44
2022-12-07T03:41:12.262Z,62.49
2022-12-07T03:42:12.386Z,62.62
2022-12-07T03:43:12.468Z,62.58
2022-12-07T03:44:12.577Z,62.58
2022-12-07T03:45:12.738Z,62.62
2022-12-07T03:46:12.819Z,62.81
2022-12-07T03:47:12.953Z,62.67
2022-12-07T03:48:13.051Z,62.34
2022-12-07T03:49:13.208Z,62.49
2022-12-07T03:50:13.275Z,62.77
2022-12-07T03:51:13.386Z,62.77
2022-12-07T03:52:13.555Z,62.44
2022-12-07T03:53:13.573Z,62.67
2022-12-07T03:54:13.757Z,62.44
2022-12-07T03:55:13.792Z,62.49
2022-12-07T03:56:14.009Z,62.44
2022-12-07T03:57:14.055Z,62.81
2022-12-07T03:58:14.161Z,62.30
2022-12-07T03:59:14.543Z,62.30
2022-12-07T04:00:14.397Z,62.44
2022-12-07T04:01:14.536Z,62.44
2022-12-07T04:02:14.737Z,62.21
2022-12-07T04:03:14.807Z,62.39
2022-12-07T04:04:14.923Z,62.39
2022-12-07T04:05:14.998Z,62.39
2022-12-07T04:06:15.102Z,62.67
2022-12-07T04:07:15.186Z,62.67
2022-12-07T04:08:15.363Z,62.58
2022-12-07T04:09:15.497Z,62.62
2022-12-07T04:10:15.603Z,62.67
2022-12-07T04:11:15.636Z,62.81
2022-12-07T04:12:15.877Z,62.91
2022-12-07T04:13:15.875Z,63.00
2022-12-07T04:14:16.094Z,63.05
2022-12-07T04:15:16.106Z,62.81
2022-12-07T04:16:16.236Z,63.19
2022-12-07T04:17:16.316Z,62.96
2022-12-07T04:18:16.433Z,63.05
2022-12-07T04:19:16.641Z,63.15
2022-12-07T04:20:16.693Z,63.10
2022-12-07T04:21:16.817Z,63.24
2022-12-07T04:22:16.913Z,63.10
2022-12-07T04:23:17.021Z,62.91
2022-12-07T04:24:17.141Z,63.24
2022-12-07T04:25:17.330Z,62.81
2022-12-07T04:26:17.371Z,63.10
2022-12-07T04:27:17.510Z,62.96
2022-12-07T04:28:17.623Z,62.77
2022-12-07T04:29:17.751Z,63.10
2022-12-07T04:30:17.870Z,63.00
2022-12-07T04:31:18.018Z,63.19
2022-12-07T04:32:18.246Z,63.44
2022-12-07T04:33:18.218Z,63.15
2022-12-07T04:34:18.349Z,63.39
2022-12-07T04:35:18.575Z,63.58
2022-12-07T04:36:18.558Z,63.05
2022-12-07T04:37:18.678Z,63.53
2022-12-07T04:38:18.770Z,63.63
2022-12-07T04:39:18.881Z,63.68
2022-12-07T04:40:19.083Z,63.53
2022-12-07T04:41:19.133Z,63.48
2022-12-07T04:42:19.272Z,63.53
2022-12-07T04:43:19.367Z,63.72
2022-12-07T04:44:19.469Z,63.58
2022-12-07T04:45:19.608Z,63.63
2022-12-07T04:46:19.736Z,63.68
2022-12-07T04:47:19.788Z,63.68
2022-12-07T04:48:19.890Z,63.53
2022-12-07T04:49:20.058Z,63.34
2022-12-07T04:50:20.103Z,63.29
2022-12-07T04:51:20.213Z,63.34
2022-12-07T04:52:20.875Z,63.39
2022-12-07T04:53:20.403Z,63.58
2022-12-07T04:54:20.533Z,63.29
2022-12-07T04:55:20.643Z,63.34
2022-12-07T04:56:20.820Z,63.10
2022-12-07T04:57:20.908Z,63.44
2022-12-07T04:58:20.996Z,63.72
2022-12-07T04:59:21.125Z,63.63
2022-12-07T05:00:21.191Z,63.82
2022-12-07T05:01:21.341Z,63.72
2022-12-07T05:02:21.503Z,63.19
2022-12-07T05:03:21.519Z,63.19
2022-12-07T05:04:21.669Z,63.53
2022-12-07T05:05:21.738Z,63.48
2022-12-07T05:06:21.883Z,63.58
2022-12-07T05:07:21.958Z,63.44
2022-12-07T05:08:22.112Z,63.77
2022-12-07T05:09:22.195Z,63.82
2022-12-07T05:10:22.329Z,63.68
2022-12-07T05:11:22.417Z,63.82
2022-12-07T05:12:22.605Z,63.92
2022-12-07T05:13:22.642Z,63.77
2022-12-07T05:14:22.747Z,63.68
2022-12-07T05:15:22.857Z,63.48
2022-12-07T05:16:23.112Z,63.53
2022-12-07T05:17:23.066Z,63.77
2022-12-07T05:18:23.175Z,63.29
2022-12-07T05:19:23.330Z,63.68
2022-12-07T05:20:23.390Z,63.58
2022-12-07T05:21:23.527Z,63.58
2022-12-07T05:22:23.608Z,63.34
2022-12-07T05:23:23.725Z,63.58
2022-12-07T05:24:23.885Z,63.48
2022-12-07T05:25:23.991Z,63.15
2022-12-07T05:26:24.083Z,63.15
2022-12-07T05:27:24.218Z,63.29
2022-12-07T05:28:24.332Z,63.10
2022-12-07T05:29:24.459Z,63.15
2022-12-07T05:30:24.556Z,62.96
2022-12-07T05:31:24.712Z,62.96
2022-12-07T05:32:24.752Z,63.00
2022-12-07T05:33:24.855Z,62.96
2022-12-07T05:34:25.110Z,63.05
2022-12-07T05:35:25.142Z,63.10
2022-12-07T05:36:25.278Z,63.15
2022-12-07T05:37:26.379Z,63.05
2022-12-07T05:38:25.490Z,63.05
2022-12-07T05:39:25.638Z,63.24
2022-12-07T05:40:25.680Z,63.19
2022-12-07T05:41:25.793Z,63.19
2022-12-07T05:42:25.966Z,63.00
2022-12-07T05:43:26.020Z,62.91
2022-12-07T05:44:26.168Z,63.00
2022-12-07T05:45:26.301Z,62.81
2022-12-07T05:46:26.397Z,63.00
2022-12-07T05:47:26.478Z,63.19
2022-12-07T05:48:26.557Z,63.15
2022-12-07T05:49:26.733Z,63.05
2022-12-07T05:50:26.754Z,63.29
2022-12-07T05:51:26.867Z,63.15
2022-12-07T05:52:27.069Z,63.39
2022-12-07T05:53:27.074Z,63.58
2022-12-07T05:54:27.468Z,63.05
2022-12-07T05:55:27.320Z,63.29
2022-12-07T05:56:27.447Z,62.96
2022-12-07T05:57:27.545Z,63.10
2022-12-07T05:58:27.667Z,62.91
2022-12-07T05:59:27.882Z,62.62
2022-12-07T06:00:27.934Z,62.53
2022-12-07T06:01:28.088Z,62.30
2022-12-07T06:02:28.202Z,62.44
2022-12-07T06:03:28.298Z,62.21
2022-12-07T06:04:28.481Z,62.11
2022-12-07T06:05:28.474Z,62.25
2022-12-07T06:06:28.625Z,62.21
2022-12-07T06:07:28.761Z,62.49
2022-12-07T06:08:28.854Z,62.39
2022-12-07T06:09:29.046Z,62.58
2022-12-07T06:10:29.016Z,62.67
2022-12-07T06:11:29.152Z,62.91
2022-12-07T06:12:29.322Z,62.77
2022-12-07T06:13:29.361Z,62.91
2022-12-07T06:14:29.479Z,63.15
2022-12-07T06:15:29.629Z,62.91
2022-12-07T06:16:29.823Z,63.44
2022-12-07T06:17:29.827Z,63.19
2022-12-07T06:18:29.957Z,63.24
2022-12-07T06:19:30.078Z,63.15
2022-12-07T06:20:30.214Z,63.15
2022-12-07T06:21:30.289Z,63.19
2022-12-07T06:22:30.405Z,63.05
2022-12-07T06:23:30.564Z,63.10
2022-12-07T06:24:30.617Z,62.72
2022-12-07T06:25:30.729Z,62.81
2022-12-07T06:26:30.886Z,63.34
2022-12-07T06:27:30.923Z,63.19
2022-12-07T06:28:31.106Z,63.29
2022-12-07T06:29:31.212Z,62.91
2022-12-07T06:30:31.404Z,63.15
2022-12-07T06:31:31.472Z,63.44
2022-12-07T06:32:31.654Z,63.05
2022-12-07T06:33:31.702Z,63.44
2022-12-07T06:34:31.831Z,63.44
2022-12-07T06:35:31.876Z,63.34
2022-12-07T06:36:32.025Z,63.10
2022-12-07T06:37:32.084Z,63.29
2022-12-07T06:38:32.209Z,63.53
2022-12-07T06:39:32.341Z,63.10
2022-12-07T06:40:32.400Z,63.68
2022-12-07T06:41:32.528Z,63.53
2022-12-07T06:42:32.631Z,63.53
2022-12-07T06:43:32.744Z,63.68
2022-12-07T06:44:32.903Z,63.82
2022-12-07T06:45:33.017Z,63.82
2022-12-07T06:46:33.108Z,64.02
2022-12-07T06:47:41.850Z,63.92
2022-12-07T06:48:34.328Z,63.97
2022-12-07T06:49:33.483Z,64.02
2022-12-07T06:50:33.546Z,63.72
2022-12-07T06:51:33.681Z,63.68
2022-12-07T06:52:33.857Z,63.68
2022-12-07T06:53:33.878Z,63.87
2022-12-07T06:54:34.021Z,64.02
2022-12-07T06:55:34.100Z,64.22
2022-12-07T06:56:34.202Z,64.17
2022-12-07T06:57:34.335Z,64.26
2022-12-07T06:58:34.494Z,64.17
2022-12-07T06:59:34.704Z,64.22
2022-12-07T07:00:34.647Z,64.51
2022-12-07T07:01:34.857Z,64.41
2022-12-07T07:02:35.005Z,64.02
2022-12-07T07:03:35.082Z,64.07
2022-12-07T07:04:35.139Z,64.17
2022-12-07T07:05:35.242Z,63.97
2022-12-07T07:06:35.347Z,63.97
2022-12-07T07:07:51.725Z,64.02
2022-12-07T07:08:36.724Z,63.92
2022-12-07T07:09:35.673Z,63.87
2022-12-07T07:10:35.823Z,64.02
2022-12-07T07:11:35.882Z,63.82
2022-12-07T07:12:36.062Z,64.02
2022-12-07T07:13:36.250Z,63.72
2022-12-07T07:14:36.221Z,63.72
2022-12-07T07:15:36.364Z,63.77
2022-12-07T07:16:36.503Z,63.39
2022-12-07T07:17:36.581Z,63.39
2022-12-07T07:18:36.710Z,63.92
2022-12-07T07:19:36.801Z,63.92
2022-12-07T07:20:36.973Z,63.63
2022-12-07T07:21:37.040Z,63.87
2022-12-07T07:22:37.152Z,63.72
2022-12-07T07:23:37.301Z,63.82
2022-12-07T07:24:37.372Z,63.68
2022-12-07T07:25:37.480Z,63.63
2022-12-07T07:26:37.608Z,63.58
2022-12-07T07:27:37.710Z,63.77
2022-12-07T07:28:37.851Z,63.53
2022-12-07T07:29:37.972Z,63.68
2022-12-07T07:30:38.082Z,63.44
2022-12-07T07:31:38.212Z,63.58
2022-12-07T07:32:38.389Z,63.72
2022-12-07T07:33:38.419Z,63.97
2022-12-07T07:34:38.517Z,63.82
2022-12-07T07:35:38.624Z,63.87
2022-12-07T07:36:38.764Z,63.87
2022-12-07T07:37:38.869Z,63.97
2022-12-07T07:38:38.991Z,63.68
2022-12-07T07:39:39.092Z,64.12
2022-12-07T07:40:39.211Z,63.97
2022-12-07T07:41:39.315Z,63.72
2022-12-07T07:42:39.429Z,63.77
2022-12-07T07:43:39.607Z,63.77
2022-12-07T07:44:39.649Z,63.92
2022-12-07T07:45:39.833Z,63.87
2022-12-07T07:46:39.926Z,63.97
2022-12-07T07:47:39.984Z,64.07
2022-12-07T07:48:40.118Z,64.07
2022-12-07T07:49:46.129Z,64.02
2022-12-07T07:50:41.325Z,63.77
2022-12-07T07:51:40.422Z,63.92
2022-12-07T07:52:40.549Z,64.07
2022-12-07T07:53:40.678Z,64.22
2022-12-07T07:54:40.783Z,63.97
2022-12-07T07:55:40.934Z,63.87
2022-12-07T07:56:41.016Z,63.68
2022-12-07T07:57:41.152Z,64.07
2022-12-07T07:58:41.231Z,64.02
2022-12-07T07:59:41.343Z,63.68
2022-12-07T08:00:41.458Z,63.92
2022-12-07T08:01:41.595Z,63.72
2022-12-07T08:02:41.713Z,63.77
2022-12-07T08:03:41.831Z,63.68
2022-12-07T08:04:41.951Z,63.58
2022-12-07T08:05:42.048Z,63.34
2022-12-07T08:06:42.163Z,62.86
2022-12-07T08:07:42.357Z,63.05
2022-12-07T08:08:42.423Z,62.86
2022-12-07T08:09:42.479Z,62.72
2022-12-07T08:10:42.596Z,62.62
2022-12-07T08:11:42.697Z,62.44
2022-12-07T08:12:42.914Z,62.07
2022-12-07T08:13:42.958Z,62.11
2022-12-07T08:14:43.015Z,62.11
2022-12-07T08:15:43.151Z,61.84
2022-12-07T08:16:43.275Z,61.79
2022-12-07T08:17:43.353Z,61.84
2022-12-07T08:18:43.552Z,61.88
2022-12-07T08:19:43.592Z,61.88
2022-12-07T08:20:43.702Z,62.11
2022-12-07T08:21:43.881Z,61.84
2022-12-07T08:22:43.924Z,61.65
2022-12-07T08:23:44.063Z,61.70
2022-12-07T08:24:44.164Z,61.97
2022-12-07T08:25:44.282Z,61.74
2022-12-07T08:26:44.410Z,61.79
2022-12-07T08:27:44.511Z,62.02
2022-12-07T08:28:44.621Z,62.07
2022-12-07T08:29:44.781Z,62.02
2022-12-07T08:30:44.890Z,62.07
2022-12-07T08:31:45.015Z,61.97
2022-12-07T08:32:45.151Z,62.11
2022-12-07T08:33:45.196Z,62.34
2022-12-07T08:34:45.251Z,62.25
2022-12-07T08:35:45.353Z,62.39
2022-12-07T08:36:45.460Z,62.30
2022-12-07T08:37:45.578Z,62.91
2022-12-07T08:39:08.098Z,62.77
2022-12-07T08:39:46.832Z,63.00
2022-12-07T08:40:45.930Z,63.34
2022-12-07T08:41:46.087Z,63.39
2022-12-07T08:42:46.179Z,63.48
2022-12-07T08:43:46.397Z,63.58
2022-12-07T08:44:46.443Z,63.77
2022-12-07T08:45:46.508Z,64.02
2022-12-07T08:46:46.709Z,64.07
2022-12-07T08:47:46.780Z,63.72
2022-12-07T08:48:46.873Z,64.07
2022-12-07T08:49:46.969Z,64.07
2022-12-07T08:50:49.707Z,64.41
2022-12-07T08:51:47.255Z,64.26
2022-12-07T08:52:47.358Z,64.41
2022-12-07T08:53:47.407Z,64.22
2022-12-07T08:54:47.538Z,64.46
2022-12-07T08:55:47.643Z,64.71
2022-12-07T08:56:47.755Z,64.26
2022-12-07T08:57:48.018Z,64.17
2022-12-07T08:58:47.975Z,64.32
2022-12-07T08:59:48.090Z,64.36
2022-12-07T09:00:48.223Z,63.87
2022-12-07T09:01:48.381Z,64.36
2022-12-07T09:02:48.473Z,64.22
2022-12-07T09:03:48.520Z,64.81
2022-12-07T09:04:48.634Z,64.86
2022-12-07T09:05:48.851Z,65.17
2022-12-07T09:06:49.077Z,65.27
2022-12-07T09:07:49.066Z,65.07
2022-12-07T09:08:49.090Z,64.92
2022-12-07T09:09:49.209Z,65.37
2022-12-07T09:10:49.340Z,65.53
2022-12-07T09:11:49.446Z,65.94
2022-12-07T09:12:49.681Z,65.73
2022-12-07T09:13:49.717Z,65.73
2022-12-07T09:14:49.812Z,66.10
2022-12-07T09:15:49.938Z,66.15
2022-12-07T09:16:50.009Z,66.15
2022-12-07T09:17:50.158Z,66.20
2022-12-07T09:18:50.253Z,66.41
2022-12-07T09:19:50.390Z,66.20
2022-12-07T09:20:50.516Z,66.20
2022-12-07T09:21:50.602Z,66.15
2022-12-07T09:22:50.780Z,66.05
2022-12-07T09:23:50.841Z,66.26
2022-12-07T09:24:50.946Z,66.20
2022-12-07T09:25:51.077Z,66.31
2022-12-07T09:26:51.200Z,66.15
2022-12-07T09:27:51.307Z,66.20
2022-12-07T09:28:51.422Z,66.15
2022-12-07T09:29:51.514Z,65.94
2022-12-07T09:31:52.802Z,65.89
2022-12-07T09:32:52.005Z,66.10
2022-12-07T09:33:52.061Z,65.94
2022-12-07T09:34:52.272Z,66.10
2022-12-07T09:35:52.245Z,66.05
2022-12-07T09:36:52.353Z,65.73
2022-12-07T09:37:52.510Z,65.73
2022-12-07T09:38:52.562Z,65.73
2022-12-07T09:39:52.689Z,66.10
2022-12-07T09:40:52.821Z,65.94
2022-12-07T09:41:52.919Z,66.20
2022-12-07T09:42:53.120Z,65.99
2022-12-07T09:43:53.143Z,65.79
2022-12-07T09:44:53.300Z,65.68
2022-12-07T09:45:53.384Z,65.84
2022-12-07T09:46:53.522Z,65.79
2022-12-07T09:47:53.612Z,65.68
2022-12-07T09:48:53.725Z,65.73
2022-12-07T09:49:53.819Z,65.58
2022-12-07T09:50:53.947Z,65.48
2022-12-07T09:51:54.041Z,65.42
2022-12-07T09:52:54.218Z,65.17
2022-12-07T09:53:54.269Z,65.42
2022-12-07T09:54:54.377Z,65.53
2022-12-07T09:55:54.496Z,65.79
2022-12-07T09:56:54.596Z,65.68
2022-12-07T09:57:54.757Z,65.63
2022-12-07T09:58:54.825Z,65.84
2022-12-07T09:59:54.936Z,66.15
2022-12-07T10:00:55.059Z,66.31
2022-12-07T10:01:55.223Z,66.26
2022-12-07T10:02:55.276Z,66.26
2022-12-07T10:03:55.383Z,66.47
2022-12-07T10:04:55.530Z,67.00
2022-12-07T10:05:55.616Z,66.84
2022-12-07T10:06:55.730Z,66.20
2022-12-07T10:07:55.970Z,66.36
2022-12-07T10:08:55.983Z,66.26
2022-12-07T10:09:56.030Z,66.79
2022-12-07T10:10:56.136Z,65.73
2022-12-07T10:11:56.251Z,66.20
2022-12-07T10:12:57.534Z,66.57
2022-12-07T10:13:56.448Z,67.00
2022-12-07T10:15:07.191Z,67.49
2022-12-07T10:16:03.432Z,67.60
2022-12-07T10:16:57.848Z,67.54
2022-12-07T10:17:56.988Z,67.60
2022-12-07T10:18:57.107Z,67.82
2022-12-07T10:19:57.134Z,67.93
2022-12-07T10:20:57.276Z,67.71
2022-12-07T10:21:57.377Z,67.82
2022-12-07T10:22:57.602Z,67.38
2022-12-07T10:23:57.576Z,67.60
2022-12-07T10:24:57.709Z,67.76
2022-12-07T10:25:57.800Z,68.04
2022-12-07T10:26:57.909Z,67.87
2022-12-07T10:27:58.049Z,67.76
2022-12-07T10:28:58.191Z,68.04
2022-12-07T10:29:58.252Z,68.26
2022-12-07T10:30:58.439Z,67.54
2022-12-07T10:31:58.452Z,67.76
2022-12-07T10:32:58.721Z,67.82
2022-12-07T10:33:58.669Z,67.98
2022-12-07T10:34:58.778Z,67.82
2022-12-07T10:35:59.107Z,67.43
2022-12-07T10:36:59.008Z,67.82
2022-12-07T10:37:59.219Z,67.38
2022-12-07T10:38:59.227Z,67.22
2022-12-07T10:39:59.361Z,67.60
2022-12-07T10:40:59.467Z,66.84
2022-12-07T10:41:59.578Z,66.47
2022-12-07T10:42:59.842Z,66.10
2022-12-07T10:43:59.806Z,65.99
2022-12-07T10:44:59.975Z,67.38
2022-12-07T10:46:03.862Z,69.28
2022-12-07T10:47:00.179Z,72.53
2022-12-07T10:48:00.241Z,74.81
2022-12-07T10:49:00.429Z,76.39
2022-12-07T10:50:00.486Z,77.31
2022-12-07T10:51:00.550Z,79.44
2022-12-07T10:52:00.650Z,83.08
2022-12-07T10:53:00.871Z,85.20
2022-12-07T10:54:00.885Z,88.54
2022-12-07T10:55:01.445Z,89.98
2022-12-07T10:56:01.129Z,90.46
2022-12-07T10:57:01.255Z,90.86
2022-12-07T10:58:01.444Z,90.37
2022-12-07T10:59:01.488Z,90.37
2022-12-07T11:00:01.600Z,89.40
2022-12-07T11:01:01.824Z,90.56
2022-12-07T11:02:01.925Z,90.76
2022-12-07T11:03:01.947Z,90.37
2022-12-07T11:04:02.174Z,91.86
2022-12-07T11:05:02.484Z,93.93
2022-12-07T11:06:02.239Z,91.66
2022-12-07T11:07:02.355Z,90.37
2022-12-07T11:08:02.620Z,88.45
2022-12-07T11:09:02.611Z,86.35
2022-12-07T11:10:10.660Z,87.43
2022-12-07T11:11:03.881Z,87.89
2022-12-07T11:12:02.955Z,87.34
2022-12-07T11:13:03.187Z,88.45
2022-12-07T11:14:03.843Z,89.49
2022-12-07T11:15:03.294Z,89.11
2022-12-07T11:16:03.510Z,88.54
2022-12-07T11:17:03.538Z,91.16
2022-12-07T11:18:03.698Z,91.56
2022-12-07T11:19:03.713Z,90.46
2022-12-07T11:20:04.207Z,90.66
2022-12-07T11:21:03.977Z,91.66
2022-12-07T11:22:04.074Z,91.16
2022-12-07T11:23:04.259Z,92.57
2022-12-07T11:24:04.282Z,92.47
2022-12-07T11:25:04.382Z,93.51
2022-12-07T11:26:04.502Z,95.65
2022-12-07T11:27:04.612Z,95.87
2022-12-07T11:28:04.791Z,94.14
2022-12-07T11:29:04.851Z,93.19
2022-12-07T11:30:05.277Z,94.35
2022-12-07T11:31:05.125Z,95.32
2022-12-07T11:32:05.263Z,94.82
2022-12-07T11:33:05.742Z,95.32
2022-12-07T11:34:05.430Z,95.87
2022-12-07T11:35:05.507Z,95.30
2022-12-07T11:36:05.609Z,93.09
2022-12-07T11:37:05.767Z,94.14
2022-12-07T11:38:05.866Z,94.65
2022-12-07T11:39:05.969Z,95.03
2022-12-07T11:40:06.224Z,95.36
2022-12-07T11:41:06.173Z,95.47
2022-12-07T11:42:06.287Z,96.24
2022-12-07T11:43:06.457Z,98.92
2022-12-07T11:44:06.497Z,101.07
2022-12-07T11:45:06.627Z,109.28
2022-12-07T11:46:06.778Z,115.09
2022-12-07T11:47:06.981Z,117.93
2022-12-07T11:48:07.023Z,121.36
2022-12-07T11:49:07.221Z,122.07
2022-12-07T11:50:07.287Z,127.68
2022-12-07T11:51:07.494Z,134.79
2022-12-07T11:52:07.583Z,139.88
2022-12-07T11:53:07.884Z,142.99
2022-12-07T11:54:07.823Z,145.74
2022-12-07T11:55:07.962Z,148.33
2022-12-07T11:56:08.093Z,150.74
2022-12-07T11:57:08.234Z,156.10
2022-12-07T11:58:08.453Z,158.63
2022-12-07T11:59:08.509Z,162.49
2022-12-07T12:00:08.612Z,168.05
2022-12-07T12:01:08.752Z,174.74
2022-12-07T12:02:08.971Z,173.47
2022-12-07T12:03:09.109Z,172.39
2022-12-07T12:04:09.194Z,178.86
2022-12-07T12:05:09.231Z,180.02
2022-12-07T12:06:09.406Z,183.99
2022-12-07T12:10:10.874Z,178.09
2022-12-07T12:11:09.991Z,173.29
2022-12-07T12:15:11.446Z,161.70
2022-12-07T12:16:10.710Z,160.46
2022-12-07T12:17:10.687Z,162.96
2022-12-07T12:18:10.876Z,161.86
2022-12-07T12:19:10.937Z,159.69
2022-12-07T12:20:11.091Z,157.73
2022-12-07T12:21:11.264Z,156.69
2022-12-07T12:22:11.359Z,154.94
2022-12-07T12:23:11.574Z,157.43
2022-12-07T12:24:11.619Z,153.66
2022-12-07T12:25:11.783Z,152.68
2022-12-07T12:26:13.097Z,146.51
2022-12-07T12:27:12.029Z,141.06
2022-12-07T12:28:12.248Z,140.23
2022-12-07T12:29:12.288Z,142.99
2022-12-07T12:30:12.416Z,143.12
2022-12-07T12:31:12.544Z,146.12
2022-12-07T12:32:12.804Z,147.16
2022-12-07T12:33:12.876Z,149.13
2022-12-07T12:34:12.941Z,151.15
2022-12-07T12:35:13.096Z,152.54
2022-12-07T12:36:13.282Z,150.74
2022-12-07T12:37:13.352Z,149.80
2022-12-07T12:38:13.578Z,151.15
2022-12-07T12:39:13.609Z,147.68
2022-12-07T12:40:13.825Z,143.98
2022-12-07T12:41:13.871Z,146.64
2022-12-07T12:42:13.992Z,149.93
2022-12-07T12:43:14.091Z,152.12
2022-12-07T12:44:14.285Z,152.96
2022-12-07T12:45:14.350Z,148.60
2022-12-07T12:46:14.515Z,146.38
2022-12-07T12:47:14.610Z,149.93
2022-12-07T12:48:14.781Z,153.24
2022-12-07T12:49:14.868Z,156.10
2022-12-07T12:50:15.018Z,158.63
2022-12-07T12:51:15.160Z,163.28
2022-12-07T12:52:15.204Z,163.76
2022-12-07T12:53:15.472Z,162.33
2022-12-07T12:54:15.558Z,161.86
2022-12-07T12:55:15.574Z,159.54
2022-12-07T12:56:15.737Z,162.17
2022-12-07T12:57:15.867Z,163.12
2022-12-07T12:58:15.948Z,161.70
2022-12-07T12:59:16.101Z,159.69